Time;durP1;ratioP1;P1;durP2;ratioP2;P2;SDS_P1;SDS_P2;PMS_P1;PMS_P2;Temp;Humidity;BMP_temperature;BMP_pressure;BME280_temperature;BME280_humidity;BME280_pressure;Samples;Min_cycle;Max_cycle;Signal;HPM_P1;HPM_P2
2024/04/11 00:01:14;;;;;;;10.00;3.40;;;8.20;70.80;;;;;;5385376;26;20596;-75
2024/04/11 00:03:39;;;;;;;11.90;3.20;;;8.20;71.00;;;;;;5387185;26;20505;-78
2024/04/11 00:06:05;;;;;;;12.33;3.33;;;8.20;71.00;;;;;;5400363;26;20282;-75
2024/04/11 00:08:30;;;;;;;6.23;2.93;;;8.00;71.00;;;;;;5383195;26;20235;-76
2024/04/11 00:10:56;;;;;;;5.50;2.87;;;8.20;71.30;;;;;;5396650;26;20227;-75
2024/04/11 00:13:22;;;;;;;6.40;3.10;;;8.30;70.80;;;;;;5365094;26;20245;-74
2024/04/11 00:15:53;;;;;;;11.30;3.43;;;8.20;70.70;;;;;;5402599;26;20239;-74
2024/04/11 00:18:21;;;;;;;11.33;2.97;;;8.20;70.70;;;;;;5403638;26;20456;-74
2024/04/11 00:20:48;;;;;;;7.33;3.33;;;8.00;70.80;;;;;;5364136;26;20476;-76
2024/04/11 00:23:20;;;;;;;5.47;3.57;;;7.90;71.30;;;;;;5374338;26;20534;-75
2024/04/11 00:25:56;;;;;;;6.10;3.57;;;7.80;71.60;;;;;;5382383;26;20465;-75
2024/04/11 00:28:25;;;;;;;5.07;3.37;;;7.70;72.00;;;;;;5391411;26;20477;-75
2024/04/11 00:30:54;;;;;;;10.43;3.37;;;7.60;72.40;;;;;;5387295;26;20481;-78
2024/04/11 00:33:21;;;;;;;10.33;3.30;;;7.50;72.70;;;;;;5380774;26;20469;-77
2024/04/11 00:35:52;;;;;;;5.57;3.60;;;7.60;72.90;;;;;;5383506;26;20469;-75
2024/04/11 00:38:19;;;;;;;4.40;2.80;;;7.50;72.90;;;;;;5378132;26;20472;-75
2024/04/11 00:41:05;;;;;;;9.87;4.57;;;7.40;73.30;;;;;;5381102;26;20585;-77
2024/04/11 00:43:31;;;;;;;7.90;3.23;;;7.30;73.70;;;;;;5368713;26;20473;-78
2024/04/11 00:45:58;;;;;;;7.57;3.33;;;7.30;73.90;;;;;;5381273;26;20453;-75
2024/04/11 00:48:23;;;;;;;12.07;3.70;;;7.30;74.00;;;;;;5374685;26;20246;-75
2024/04/11 00:50:51;;;;;;;8.53;3.30;;;7.40;73.70;;;;;;5381491;26;20465;-75
2024/04/11 00:53:19;;;;;;;9.03;3.60;;;7.40;73.50;;;;;;5385567;26;20247;-77
2024/04/11 00:55:45;;;;;;;5.77;3.40;;;7.60;73.00;;;;;;5375065;26;20536;-76
2024/04/11 00:58:11;;;;;;;9.07;3.80;;;7.60;72.30;;;;;;5382446;26;21069;-77
2024/04/11 01:00:38;;;;;;;7.30;3.27;;;7.60;72.40;;;;;;5383114;26;21097;-76
2024/04/11 01:03:04;;;;;;;9.87;3.13;;;7.60;72.40;;;;;;5378080;26;20477;-76
2024/04/11 01:05:32;;;;;;;5.57;3.20;;;7.60;72.40;;;;;;5390390;26;20457;-75
2024/04/11 01:07:58;;;;;;;8.33;3.53;;;7.60;72.10;;;;;;5381411;26;20474;-76
2024/04/11 01:10:25;;;;;;;7.23;3.30;;;7.50;72.30;;;;;;5371934;26;20461;-75
2024/04/11 01:12:51;;;;;;;5.50;3.47;;;7.50;72.70;;;;;;5361163;26;20477;-75
2024/04/11 01:15:17;;;;;;;9.47;3.83;;;7.40;72.90;;;;;;5370406;26;20461;-75
2024/04/11 01:17:46;;;;;;;6.37;3.30;;;7.40;73.20;;;;;;5381537;26;20464;-75
2024/04/11 01:20:12;;;;;;;11.90;3.50;;;7.50;73.00;;;;;;5381162;26;21362;-77
2024/04/11 01:22:44;;;;;;;4.53;2.83;;;7.50;72.90;;;;;;5374787;26;20473;-75
2024/04/11 01:25:09;;;;;;;9.93;3.97;;;7.40;73.30;;;;;;5364341;26;20481;-76
2024/04/11 01:27:35;;;;;;;7.83;3.73;;;7.50;73.60;;;;;;5381508;26;20533;-76
2024/04/11 01:30:05;;;;;;;5.97;4.23;;;7.40;73.60;;;;;;5381009;26;20389;-76
2024/04/11 01:32:31;;;;;;;9.27;3.60;;;7.50;73.60;;;;;;5365756;26;20484;-75
2024/04/11 01:34:59;;;;;;;6.80;4.10;;;7.50;73.70;;;;;;5368290;26;20458;-76
2024/04/11 01:37:28;;;;;;;7.20;3.77;;;7.50;73.90;;;;;;5382585;26;20481;-77
2024/04/11 01:39:54;;;;;;;8.63;4.07;;;7.40;74.00;;;;;;5351226;26;21102;-76
2024/04/11 01:42:20;;;;;;;9.87;3.77;;;7.30;74.60;;;;;;5370326;26;20565;-76
2024/04/11 01:44:46;;;;;;;6.20;3.60;;;7.30;74.80;;;;;;5369517;26;20476;-76
2024/04/11 01:47:14;;;;;;;8.83;4.00;;;7.30;74.80;;;;;;5381502;26;20230;-75
2024/04/11 01:49:43;;;;;;;11.20;4.00;;;7.30;74.90;;;;;;5384750;26;20281;-75
2024/04/11 01:52:09;;;;;;;4.87;3.13;;;7.20;75.20;;;;;;5377977;26;20473;-76
2024/04/11 01:54:44;;;;;;;5.97;3.50;;;7.20;75.40;;;;;;5376643;26;20593;-75
2024/04/11 01:57:12;;;;;;;6.83;3.50;;;7.20;75.40;;;;;;5384178;26;20468;-76
2024/04/11 01:59:38;;;;;;;7.67;4.10;;;7.10;75.50;;;;;;5380993;26;20544;-76
2024/04/11 02:02:08;;;;;;;8.13;3.53;;;7.10;75.70;;;;;;5367031;26;20994;-77
2024/04/11 02:04:33;;;;;;;8.40;3.70;;;7.10;75.70;;;;;;5344217;26;20247;-76
2024/04/11 02:06:59;;;;;;;5.93;3.50;;;7.10;75.80;;;;;;5379453;26;20517;-75
2024/04/11 02:09:27;;;;;;;5.00;3.30;;;7.10;75.80;;;;;;5379963;26;20238;-76
2024/04/11 02:11:53;;;;;;;11.87;3.70;;;7.10;75.70;;;;;;5341706;26;20480;-77
2024/04/11 02:14:22;;;;;;;7.53;3.20;;;7.20;74.50;;;;;;5369571;26;20526;-76
2024/04/11 02:16:50;;;;;;;9.83;3.67;;;7.20;74.50;;;;;;5384858;26;20537;-76
2024/04/11 02:19:16;;;;;;;7.20;3.83;;;7.10;74.60;;;;;;5356117;26;20476;-75
2024/04/11 02:21:42;;;;;;;7.60;3.80;;;7.00;75.40;;;;;;5367842;26;20474;-76
2024/04/11 02:24:11;;;;;;;5.57;3.63;;;6.80;76.10;;;;;;5390716;26;20460;-76
2024/04/11 02:26:37;;;;;;;7.13;3.70;;;6.70;76.40;;;;;;5385380;26;20524;-78
2024/04/11 02:29:06;;;;;;;10.33;4.03;;;6.70;77.00;;;;;;5383338;26;20564;-76
2024/04/11 02:31:33;;;;;;;7.40;3.53;;;6.60;76.80;;;;;;5375655;26;20478;-75
2024/04/11 02:34:00;;;;;;;9.37;4.03;;;6.70;77.10;;;;;;5353117;26;20799;-75
2024/04/11 02:36:31;;;;;;;6.20;3.50;;;6.60;77.10;;;;;;5398150;26;20724;-73
2024/04/11 02:38:58;;;;;;;7.67;3.73;;;6.70;77.30;;;;;;5387960;26;20461;-74
2024/04/11 02:41:24;;;;;;;6.10;3.07;;;6.70;77.40;;;;;;5370720;26;20483;-76
2024/04/11 02:43:50;;;;;;;14.10;4.63;;;6.70;77.60;;;;;;5368809;26;20528;-75
2024/04/11 02:46:15;;;;;;;13.90;6.17;;;6.70;77.60;;;;;;5382896;26;20312;-75
2024/04/11 02:48:42;;;;;;;13.73;5.30;;;6.70;77.70;;;;;;5384914;26;20226;-76
2024/04/11 02:51:08;;;;;;;6.40;3.57;;;6.70;77.70;;;;;;5376535;26;20250;-75
2024/04/11 02:53:34;;;;;;;6.57;3.93;;;6.70;77.60;;;;;;5365792;26;21115;-75
2024/04/11 02:56:00;;;;;;;5.80;3.73;;;6.70;77.30;;;;;;5378402;26;20242;-76
2024/04/11 02:58:27;;;;;;;7.90;4.00;;;6.70;75.90;;;;;;5376366;26;20347;-74
2024/04/11 03:01:09;;;;;;;8.00;3.60;;;6.70;75.80;;;;;;5377896;26;20468;-74
2024/04/11 03:03:38;;;;;;;5.37;3.57;;;6.60;76.40;;;;;;5369223;26;20598;-77
2024/04/11 03:06:10;;;;;;;8.50;4.10;;;6.60;76.70;;;;;;5375061;26;20528;-75
2024/04/11 03:08:36;;;;;;;5.83;3.60;;;6.50;76.80;;;;;;5381525;26;20941;-75
2024/04/11 03:11:02;;;;;;;10.70;4.10;;;6.40;77.30;;;;;;5376929;26;20472;-74
2024/04/11 03:13:28;;;;;;;7.53;4.47;;;6.30;77.60;;;;;;5375607;26;20514;-77
2024/04/11 03:15:58;;;;;;;8.50;4.10;;;6.30;78.00;;;;;;5379557;26;20482;-74
2024/04/11 03:18:23;;;;;;;6.93;4.40;;;6.20;78.30;;;;;;5390292;26;20460;-77
2024/04/11 03:20:54;;;;;;;8.10;3.90;;;6.20;78.40;;;;;;5387993;26;20461;-73
2024/04/11 03:23:20;;;;;;;12.90;4.20;;;6.40;78.90;;;;;;5382355;26;21127;-75
2024/04/11 03:25:45;;;;;;;6.37;3.20;;;6.40;77.70;;;;;;5376099;26;20460;-76
2024/04/11 03:28:11;;;;;;;8.40;3.70;;;6.50;77.00;;;;;;5384154;26;20238;-76
2024/04/11 03:30:37;;;;;;;9.57;4.03;;;6.50;76.70;;;;;;5384937;26;20353;-77
2024/04/11 03:33:03;;;;;;;7.90;3.90;;;6.40;76.50;;;;;;5379594;26;20293;-78
2024/04/11 03:35:32;;;;;;;7.53;4.10;;;6.30;76.80;;;;;;5380991;26;20601;-77
2024/04/11 03:37:58;;;;;;;7.43;3.70;;;6.10;77.40;;;;;;5381755;26;20556;-75
2024/04/11 03:40:24;;;;;;;10.03;4.43;;;6.00;77.80;;;;;;5380669;26;20484;-76
2024/04/11 03:42:50;;;;;;;7.60;4.47;;;5.90;78.00;;;;;;5369899;26;20469;-77
2024/04/11 03:45:22;;;;;;;9.70;4.10;;;5.90;78.00;;;;;;5380923;26;20469;-76
2024/04/11 03:47:49;;;;;;;8.63;4.27;;;5.90;78.00;;;;;;5381629;26;20492;-77
2024/04/11 03:50:14;;;;;;;8.00;4.13;;;5.80;78.10;;;;;;5380938;26;20464;-75
2024/04/11 03:52:43;;;;;;;10.10;4.20;;;5.80;78.40;;;;;;5372315;26;20484;-76
2024/04/11 03:55:08;;;;;;;9.20;5.80;;;5.70;78.70;;;;;;5382703;26;20536;-77
2024/04/11 03:57:35;;;;;;;8.50;4.60;;;5.70;79.20;;;;;;5382536;26;20473;-77
2024/04/11 04:00:07;;;;;;;6.67;3.27;;;5.80;79.70;;;;;;5372811;26;20739;-76
2024/04/11 04:02:33;;;;;;;9.87;3.60;;;5.90;79.30;;;;;;5379715;26;20529;-77
2024/04/11 04:04:59;;;;;;;8.63;4.50;;;6.10;78.90;;;;;;5380942;26;20477;-77
2024/04/11 04:07:28;;;;;;;5.87;3.73;;;6.10;78.30;;;;;;5381955;26;20481;-75
2024/04/11 04:09:58;;;;;;;5.97;3.93;;;6.10;78.10;;;;;;5382911;26;20250;-75
2024/04/11 04:12:24;;;;;;;8.03;3.97;;;6.00;78.30;;;;;;5371863;26;20492;-77
2024/04/11 04:14:53;;;;;;;5.93;4.20;;;6.00;78.40;;;;;;5381387;26;20457;-76
2024/04/11 04:17:19;;;;;;;7.90;4.50;;;6.10;78.40;;;;;;5381213;26;20227;-75
2024/04/11 04:19:45;;;;;;;9.67;4.63;;;6.10;78.00;;;;;;5382264;26;20600;-75
2024/04/11 04:22:13;;;;;;;6.13;3.70;;;6.00;78.40;;;;;;5371491;26;21028;-74
2024/04/11 04:24:40;;;;;;;7.70;4.50;;;6.10;78.70;;;;;;5377669;26;20242;-77
2024/04/11 04:27:06;;;;;;;15.07;4.73;;;6.10;78.00;;;;;;5377104;26;20457;-78
2024/04/11 04:29:32;;;;;;;8.83;4.40;;;6.20;77.70;;;;;;5380420;26;20557;-76
2024/04/11 04:31:58;;;;;;;10.17;4.53;;;6.10;77.60;;;;;;5373923;26;20477;-77
2024/04/11 04:34:25;;;;;;;8.17;4.43;;;6.10;77.70;;;;;;5379862;26;20544;-77
2024/04/11 04:36:51;;;;;;;8.30;4.07;;;6.20;77.40;;;;;;5381209;26;20234;-76
2024/04/11 04:39:16;;;;;;;7.27;3.60;;;6.20;77.60;;;;;;5381087;26;20461;-76
2024/04/11 04:41:43;;;;;;;8.30;4.27;;;6.20;78.00;;;;;;5377819;26;20343;-77
2024/04/11 04:44:09;;;;;;;10.30;4.70;;;6.10;78.00;;;;;;5393613;26;20289;-77
2024/04/11 04:46:35;;;;;;;9.17;3.93;;;6.00;78.30;;;;;;5379269;26;20461;-75
2024/04/11 04:49:09;;;;;;;6.03;3.53;;;6.00;78.70;;;;;;5348745;26;20247;-75
2024/04/11 04:51:36;;;;;;;9.40;4.17;;;6.00;78.90;;;;;;5375452;26;20305;-76
2024/04/11 04:54:02;;;;;;;13.07;4.93;;;6.00;78.90;;;;;;5378999;26;20533;-75
2024/04/11 04:56:29;;;;;;;8.63;4.00;;;6.00;79.20;;;;;;5378777;26;20536;-77
2024/04/11 04:58:55;;;;;;;10.80;4.00;;;6.00;79.20;;;;;;5348471;26;20527;-76
2024/04/11 05:01:23;;;;;;;7.40;4.23;;;6.10;79.30;;;;;;5376393;26;20480;-76
2024/04/11 05:03:50;;;;;;;7.83;4.00;;;6.20;78.30;;;;;;5380105;26;20762;-76
2024/04/11 05:06:16;;;;;;;8.70;4.97;;;6.20;77.60;;;;;;5348792;26;20518;-77
2024/04/11 05:08:45;;;;;;;9.90;5.40;;;6.10;78.00;;;;;;5377955;26;20469;-77
2024/04/11 05:11:21;;;;;;;14.10;5.27;;;6.10;78.30;;;;;;5372013;26;20597;-75
2024/04/11 05:13:49;;;;;;;10.93;5.13;;;6.10;78.30;;;;;;5372461;26;20472;-76
2024/04/11 05:16:18;;;;;;;8.57;4.57;;;6.00;78.60;;;;;;5376533;26;20548;-76
2024/04/11 05:18:46;;;;;;;6.90;4.47;;;6.00;79.20;;;;;;5377910;26;20477;-77
2024/04/11 05:21:18;;;;;;;10.07;5.53;;;6.10;79.20;;;;;;5343144;26;21029;-77
2024/04/11 05:23:44;;;;;;;6.33;3.90;;;6.30;78.70;;;;;;5374011;26;20529;-78
2024/04/11 05:26:14;;;;;;;10.70;5.00;;;6.30;78.60;;;;;;5379679;26;20456;-76
2024/04/11 05:28:46;;;;;;;10.70;4.60;;;6.20;78.60;;;;;;5382044;26;20238;-77
2024/04/11 05:31:18;;;;;;;8.00;4.53;;;6.30;78.40;;;;;;5378661;26;20526;-76
2024/04/11 05:33:47;;;;;;;11.80;4.63;;;6.30;77.10;;;;;;5386077;26;20469;-77
2024/04/11 05:36:17;;;;;;;8.70;4.70;;;6.20;77.70;;;;;;5378174;26;20555;-76
2024/04/11 05:38:46;;;;;;;13.93;6.63;;;6.10;78.30;;;;;;5377633;26;20476;-77
2024/04/11 05:41:14;;;;;;;11.30;5.77;;;6.10;78.40;;;;;;5368327;26;20480;-77
2024/04/11 05:43:43;;;;;;;8.10;4.80;;;6.10;78.60;;;;;;5376480;26;20531;-77
2024/04/11 05:46:13;;;;;;;10.87;5.47;;;6.20;78.70;;;;;;5347969;26;20871;-77
2024/04/11 05:48:41;;;;;;;6.00;4.83;;;6.20;78.60;;;;;;5374951;26;20950;-76
2024/04/11 05:51:06;;;;;;;8.00;5.13;;;6.30;78.30;;;;;;5359982;26;20525;-77
2024/04/11 05:53:36;;;;;;;10.30;5.40;;;6.30;78.00;;;;;;5372193;26;20465;-78
2024/04/11 05:56:04;;;;;;;14.10;5.30;;;6.40;77.70;;;;;;5380661;26;20238;-76
2024/04/11 05:58:30;;;;;;;9.40;4.93;;;6.50;77.30;;;;;;5374052;26;21068;-76
2024/04/11 06:01:00;;;;;;;10.97;5.33;;;6.50;77.10;;;;;;5374414;26;20469;-75
2024/04/11 06:03:30;;;;;;;13.03;5.70;;;6.50;77.10;;;;;;5380292;26;20757;-76
2024/04/11 06:05:57;;;;;;;10.00;5.60;;;6.40;77.30;;;;;;5375593;26;20460;-76
2024/04/11 06:08:23;;;;;;;9.93;5.40;;;6.50;77.30;;;;;;5378145;26;21080;-77
2024/04/11 06:10:49;;;;;;;12.27;5.80;;;6.50;77.10;;;;;;5378289;26;20476;-76
2024/04/11 06:13:17;;;;;;;6.70;5.00;;;6.60;77.00;;;;;;5367976;26;21089;-77
2024/04/11 06:15:47;;;;;;;12.37;6.17;;;6.70;76.70;;;;;;5377843;26;20525;-76
2024/04/11 06:18:14;;;;;;;11.40;6.93;;;6.80;76.70;;;;;;5378561;26;20480;-77
2024/04/11 06:20:43;;;;;;;11.20;6.83;;;6.90;76.10;;;;;;5346249;26;20608;-78
2024/04/11 06:23:12;;;;;;;8.10;5.30;;;6.90;76.10;;;;;;5369722;26;20861;-76
2024/04/11 06:25:40;;;;;;;19.63;5.93;;;6.90;75.50;;;;;;5379781;26;20468;-76
2024/04/11 06:28:05;;;;;;;18.43;6.30;;;7.00;75.20;;;;;;5378073;26;20481;-76
2024/04/11 06:30:38;;;;;;;9.97;5.53;;;7.00;75.40;;;;;;5377449;26;20504;-77
2024/04/11 06:33:08;;;;;;;11.33;5.33;;;7.10;75.20;;;;;;5367172;26;20246;-76
2024/04/11 06:35:34;;;;;;;12.33;6.03;;;7.20;74.80;;;;;;5378982;26;21029;-75
2024/04/11 06:38:04;;;;;;;11.93;6.40;;;7.30;74.50;;;;;;5377108;26;20469;-75
2024/04/11 06:40:32;;;;;;;14.33;5.87;;;7.30;74.50;;;;;;5376741;26;20476;-76
2024/04/11 06:42:59;;;;;;;12.53;6.57;;;7.30;74.30;;;;;;5358606;26;20985;-76
2024/04/11 06:45:26;;;;;;;19.23;6.33;;;7.40;74.50;;;;;;5377451;26;20461;-77
2024/04/11 06:47:56;;;;;;;10.47;5.50;;;7.50;74.50;;;;;;5379367;26;20564;-77
2024/04/11 06:50:23;;;;;;;16.43;7.27;;;7.70;74.50;;;;;;5376337;26;20472;-74
2024/04/11 06:52:51;;;;;;;13.43;7.30;;;7.80;73.70;;;;;;5371662;26;21051;-77
2024/04/11 06:55:18;;;;;;;13.40;6.30;;;7.90;73.60;;;;;;5348731;26;20535;-77
2024/04/11 06:57:45;;;;;;;11.70;6.20;;;8.00;73.30;;;;;;5378117;26;20548;-76
2024/04/11 07:00:36;;;;;;;10.73;6.47;;;8.00;73.20;;;;;;5379110;26;20469;-76
2024/04/11 07:03:16;;;;;;;12.10;6.10;;;8.10;73.20;;;;;;5372374;26;20549;-77
2024/04/11 07:05:55;;;;;;;16.97;7.93;;;8.40;72.70;;;;;;5381958;26;20466;-77
2024/04/11 07:08:29;;;;;;;16.63;7.80;;;8.50;72.30;;;;;;5381913;26;20465;-76
2024/04/11 07:10:58;;;;;;;18.13;8.63;;;8.60;72.30;;;;;;5379748;26;20580;-75
2024/04/11 07:13:25;;;;;;;15.60;8.73;;;8.60;72.10;;;;;;5349687;26;20476;-76
2024/04/11 07:15:52;;;;;;;15.50;8.73;;;8.70;72.00;;;;;;5381053;26;20477;-77
2024/04/11 07:18:17;;;;;;;20.90;8.67;;;8.80;72.00;;;;;;5377301;26;20528;-77
2024/04/11 07:20:50;;;;;;;16.10;8.80;;;8.90;71.70;;;;;;5384377;26;20476;-76
2024/04/11 07:23:17;;;;;;;15.67;7.70;;;9.10;71.80;;;;;;5381735;26;20246;-77
2024/04/11 07:25:43;;;;;;;11.87;7.20;;;9.30;71.40;;;;;;5372421;26;20473;-75
2024/04/11 07:28:09;;;;;;;21.60;7.83;;;9.40;70.80;;;;;;5383264;26;21064;-76
2024/04/11 07:30:38;;;;;;;16.83;7.50;;;9.50;70.10;;;;;;5382354;26;20461;-76
2024/04/11 07:33:06;;;;;;;17.20;8.07;;;9.50;70.10;;;;;;5370290;26;20567;-77
2024/04/11 07:35:35;;;;;;;10.90;6.80;;;9.40;69.50;;;;;;5381809;26;20679;-77
2024/04/11 07:38:03;;;;;;;15.03;8.03;;;9.60;69.70;;;;;;5379900;26;20460;-76
2024/04/11 07:40:32;;;;;;;29.20;8.60;;;9.60;69.40;;;;;;5382459;26;20586;-77
2024/04/11 07:43:09;;;;;;;16.63;9.50;;;9.70;68.90;;;;;;5374695;26;20469;-77
2024/04/11 07:45:40;;;;;;;18.73;8.70;;;9.80;68.60;;;;;;5381994;26;20573;-75
2024/04/11 07:48:12;;;;;;;14.60;7.67;;;9.90;68.00;;;;;;5381841;26;20569;-76
2024/04/11 07:50:38;;;;;;;13.20;7.60;;;10.00;67.70;;;;;;5381868;26;20461;-76
2024/04/11 07:53:14;;;;;;;13.00;6.87;;;10.00;67.30;;;;;;5377325;26;20472;-76
2024/04/11 07:55:41;;;;;;;16.90;7.30;;;10.20;67.20;;;;;;5377454;26;20476;-77
2024/04/11 07:58:06;;;;;;;15.57;6.73;;;10.30;67.00;;;;;;5381863;26;20464;-76
2024/04/11 08:00:39;;;;;;;15.17;6.60;;;10.50;67.00;;;;;;5373607;26;20560;-78
2024/04/11 08:03:07;;;;;;;14.40;7.00;;;10.70;66.40;;;;;;5368960;26;20586;-76
2024/04/11 08:05:33;;;;;;;13.33;8.03;;;10.90;65.80;;;;;;5381030;26;20548;-77
2024/04/11 08:07:59;;;;;;;11.53;6.40;;;10.90;65.80;;;;;;5378274;26;20468;-76
2024/04/11 08:10:27;;;;;;;13.10;6.63;;;11.00;65.60;;;;;;5381287;26;20239;-75
2024/04/11 08:12:53;;;;;;;12.80;7.13;;;11.00;65.70;;;;;;5386027;26;20278;-75
2024/04/11 08:15:19;;;;;;;10.93;7.07;;;11.20;65.70;;;;;;5395675;26;20453;-74
2024/04/11 08:17:45;;;;;;;16.90;7.37;;;11.20;65.40;;;;;;5384523;26;20570;-76
2024/04/11 08:20:14;;;;;;;12.50;6.93;;;11.30;65.40;;;;;;5388379;26;20449;-74
2024/04/11 08:22:43;;;;;;;13.20;6.60;;;11.50;65.30;;;;;;5389747;26;20485;-75
2024/04/11 08:25:11;;;;;;;18.40;6.93;;;11.60;64.50;;;;;;5396011;26;20472;-75
2024/04/11 08:27:42;;;;;;;11.73;6.63;;;11.70;64.10;;;;;;5394749;26;21060;-75
2024/04/11 08:30:09;;;;;;;16.53;7.47;;;11.80;64.10;;;;;;5393712;26;20481;-75
2024/04/11 08:32:35;;;;;;;13.63;6.87;;;12.00;64.10;;;;;;5389517;26;20472;-75
2024/04/11 08:35:01;;;;;;;9.43;5.80;;;12.10;63.80;;;;;;5362316;26;20465;-75
2024/04/11 08:37:29;;;;;;;11.90;5.43;;;12.10;63.20;;;;;;5395266;26;20536;-75
2024/04/11 08:39:56;;;;;;;12.47;5.93;;;12.10;63.40;;;;;;5395055;26;20571;-75
2024/04/11 08:42:22;;;;;;;13.07;6.20;;;12.20;63.50;;;;;;5385547;26;20495;-75
2024/04/11 08:44:50;;;;;;;16.10;6.60;;;12.20;63.10;;;;;;5361849;26;20562;-75
2024/04/11 08:47:16;;;;;;;9.37;5.97;;;12.40;63.40;;;;;;5390861;26;20532;-76
2024/04/11 08:49:42;;;;;;;11.20;5.80;;;12.50;63.40;;;;;;5391406;26;20473;-76
2024/04/11 08:52:11;;;;;;;17.23;6.50;;;12.40;63.10;;;;;;5386677;26;20536;-74
2024/04/11 08:54:41;;;;;;;9.07;6.13;;;12.50;63.40;;;;;;5390732;26;20465;-75
2024/04/11 08:57:11;;;;;;;11.63;5.20;;;12.50;63.20;;;;;;5386061;26;20583;-77
2024/04/11 08:59:38;;;;;;;12.77;5.63;;;12.60;63.40;;;;;;5380496;26;20587;-74
2024/04/11 09:02:08;;;;;;;12.00;5.33;;;12.80;63.40;;;;;;5381185;26;20586;-76
2024/04/11 09:04:34;;;;;;;15.20;7.27;;;12.90;62.90;;;;;;5375327;26;20465;-77
2024/04/11 09:07:00;;;;;;;12.90;6.07;;;12.90;62.90;;;;;;5380881;26;20526;-76
2024/04/11 09:09:28;;;;;;;10.17;5.83;;;13.10;62.80;;;;;;5370953;26;20246;-75
2024/04/11 09:11:56;;;;;;;18.03;4.63;;;13.10;61.90;;;;;;5375407;26;20830;-77
2024/04/11 09:14:23;;;;;;;9.87;4.80;;;13.20;61.90;;;;;;5381490;26;20461;-74
2024/04/11 09:17:09;;;;;;;15.10;5.10;;;13.30;61.20;;;;;;5391291;26;20521;-76
2024/04/11 09:19:40;;;;;;;27.17;5.37;;;13.40;61.00;;;;;;5381724;26;20473;-77
2024/04/11 09:22:13;;;;;;;12.83;4.30;;;13.50;60.60;;;;;;5376214;26;20521;-75
2024/04/11 09:24:45;;;;;;;12.00;4.33;;;13.70;60.10;;;;;;5378348;26;20482;-77
2024/04/11 09:27:15;;;;;;;8.53;3.90;;;13.80;60.00;;;;;;5375420;26;20481;-77
2024/04/11 09:29:41;;;;;;;11.13;4.37;;;13.80;59.90;;;;;;5381127;26;20530;-76
2024/04/11 09:32:13;;;;;;;7.37;3.33;;;14.00;59.70;;;;;;5372867;26;20485;-76
2024/04/11 09:34:40;;;;;;;8.53;3.27;;;14.10;59.10;;;;;;5387660;26;20269;-82
2024/04/11 09:37:14;;;;;;;7.90;3.50;;;14.20;58.80;;;;;;5387187;26;20523;-77
2024/04/11 09:39:46;;;;;;;4.20;3.07;;;14.20;58.50;;;;;;5380068;26;20466;-76
2024/04/11 09:42:19;;;;;;;7.30;2.77;;;14.30;58.10;;;;;;5375656;26;20457;-76
2024/04/11 09:44:47;;;;;;;6.03;2.70;;;14.40;55.40;;;;;;5379944;26;20566;-78
2024/04/11 09:47:18;;;;;;;5.43;2.70;;;14.40;55.40;;;;;;5383639;26;20858;-77
2024/04/11 09:49:53;;;;;;;4.40;2.40;;;14.40;55.70;;;;;;5384787;26;20597;-76
2024/04/11 09:52:27;;;;;;;10.83;3.40;;;14.30;56.00;;;;;;5382118;26;20544;-77
2024/04/11 09:54:55;;;;;;;5.97;2.93;;;14.40;56.10;;;;;;5386265;26;20538;-77
2024/04/11 09:57:24;;;;;;;5.30;2.50;;;14.50;56.00;;;;;;5379124;26;20457;-77
2024/04/11 09:59:51;;;;;;;6.40;2.70;;;14.50;55.60;;;;;;5384999;26;20745;-75
2024/04/11 10:02:20;;;;;;;8.27;2.80;;;14.50;55.80;;;;;;5372053;26;20472;-76
2024/04/11 10:04:47;;;;;;;6.60;3.30;;;14.50;55.30;;;;;;5387601;26;20470;-77
2024/04/11 10:07:25;;;;;;;11.30;3.27;;;14.50;54.80;;;;;;5383643;26;20466;-77
2024/04/11 10:09:53;;;;;;;5.13;2.80;;;14.20;55.30;;;;;;5383807;26;20513;-79
2024/04/11 10:12:19;;;;;;;10.43;3.03;;;14.20;55.60;;;;;;5372935;26;20825;-77
2024/04/11 10:14:49;;;;;;;5.10;3.70;;;14.30;55.60;;;;;;5390013;26;20551;-78
2024/04/11 10:17:15;;;;;;;4.13;2.37;;;14.50;54.90;;;;;;5383603;26;20467;-77
2024/04/11 10:19:43;;;;;;;7.03;2.77;;;14.60;55.00;;;;;;5380412;26;20512;-79
2024/04/11 10:22:15;;;;;;;3.80;2.70;;;14.60;54.40;;;;;;5369212;26;20246;-78
2024/04/11 10:24:49;;;;;;;6.73;3.00;;;14.80;54.50;;;;;;5383429;26;20494;-77
2024/04/11 10:27:18;;;;;;;5.50;2.70;;;14.80;54.10;;;;;;5378149;26;20520;-77
2024/04/11 10:29:48;;;;;;;6.80;3.03;;;14.90;52.60;;;;;;5383603;26;20865;-77
2024/04/11 10:32:21;;;;;;;8.40;3.13;;;15.00;53.00;;;;;;5371082;26;20482;-77
2024/04/11 10:34:56;;;;;;;6.77;3.07;;;14.80;52.20;;;;;;5381329;26;20563;-79
2024/04/11 10:37:26;;;;;;;5.90;3.17;;;14.70;52.90;;;;;;5383150;26;20465;-78
2024/04/11 10:39:54;;;;;;;14.40;2.90;;;14.80;52.80;;;;;;5351219;26;20602;-79
2024/04/11 10:42:27;;;;;;;4.90;2.40;;;15.00;51.20;;;;;;5365574;26;20559;-79
2024/04/11 10:44:55;;;;;;;4.47;2.57;;;15.20;50.50;;;;;;5381232;26;20465;-79
2024/04/11 10:47:22;;;;;;;6.83;2.00;;;15.50;49.00;;;;;;5384588;26;20490;-79
2024/04/11 10:49:51;;;;;;;10.60;2.33;;;15.60;47.70;;;;;;5360524;26;20563;-77
2024/04/11 10:52:19;;;;;;;5.67;1.90;;;15.70;46.90;;;;;;5348740;26;20484;-78
2024/04/11 10:54:50;;;;;;;3.67;2.53;;;15.60;47.10;;;;;;5391078;26;20572;-77
2024/04/11 10:57:16;;;;;;;7.00;2.60;;;15.60;46.90;;;;;;5390046;26;20468;-77
2024/04/11 10:59:51;;;;;;;5.17;1.80;;;15.90;46.90;;;;;;5390289;26;20456;-77
2024/04/11 11:02:23;;;;;;;7.50;2.70;;;16.20;44.60;;;;;;5387498;26;20297;-77
2024/04/11 11:04:50;;;;;;;3.27;1.90;;;16.30;43.80;;;;;;5389294;26;21139;-77
2024/04/11 11:07:21;;;;;;;3.80;2.00;;;16.80;42.60;;;;;;5394627;26;20985;-77
2024/04/11 11:09:52;;;;;;;9.00;2.87;;;17.40;42.60;;;;;;5386416;26;20488;-78
2024/04/11 11:12:19;;;;;;;4.90;2.43;;;17.50;42.40;;;;;;5386565;26;20489;-77
2024/04/11 11:14:47;;;;;;;6.33;2.67;;;17.30;43.40;;;;;;5384255;26;20975;-77
2024/04/11 11:17:21;;;;;;;9.77;2.97;;;17.60;42.80;;;;;;5390492;26;20518;-77
2024/04/11 11:19:49;;;;;;;5.27;2.70;;;18.00;43.00;;;;;;5388278;26;20467;-77
2024/04/11 11:22:18;;;;;;;7.97;2.87;;;18.10;43.40;;;;;;5372551;26;20468;-77
2024/04/11 11:24:44;;;;;;;4.63;2.40;;;18.30;41.50;;;;;;5383688;26;20465;-78
2024/04/11 11:27:11;;;;;;;6.13;2.30;;;18.60;39.50;;;;;;5354612;26;20532;-77
2024/04/11 11:29:42;;;;;;;5.50;3.10;;;18.80;39.40;;;;;;5381842;26;20464;-77
2024/04/11 11:32:18;;;;;;;5.77;2.50;;;18.50;41.20;;;;;;5369084;26;20468;-77
2024/04/11 11:34:46;;;;;;;7.23;2.90;;;18.50;41.60;;;;;;5382687;26;20594;-79
2024/04/11 11:37:13;;;;;;;7.50;2.83;;;19.10;40.60;;;;;;5380274;26;20604;-75
2024/04/11 11:39:42;;;;;;;7.57;2.73;;;19.30;39.20;;;;;;5383509;26;20466;-77
2024/04/11 11:42:26;;;;;;;4.80;2.60;;;19.60;38.00;;;;;;5342753;26;20534;-77
2024/04/11 11:47:33;;;;;;;6.83;2.70;;;19.50;38.40;;;;;;5384116;26;20516;-78
2024/04/11 11:50:01;;;;;;;6.40;2.80;;;19.20;38.80;;;;;;5384461;26;21041;-76
2024/04/11 11:52:27;;;;;;;5.20;2.90;;;19.50;38.40;;;;;;5374268;26;20524;-76
2024/04/11 11:54:54;;;;;;;3.63;2.40;;;19.30;38.00;;;;;;5353897;26;20509;-76
2024/04/11 11:57:22;;;;;;;4.57;2.37;;;18.10;39.50;;;;;;5383772;26;20454;-75
2024/04/11 11:59:48;;;;;;;5.87;3.03;;;18.00;41.20;;;;;;5384853;26;20563;-76
2024/04/11 12:02:14;;;;;;;7.40;2.80;;;18.40;39.50;;;;;;5381906;26;20532;-76
2024/04/11 12:04:44;;;;;;;11.23;2.67;;;18.50;39.50;;;;;;5382116;26;20515;-77
2024/04/11 12:07:13;;;;;;;3.17;2.30;;;18.70;39.80;;;;;;5388972;26;20532;-76
2024/04/11 12:09:44;;;;;;;6.63;2.73;;;19.10;39.20;;;;;;5384959;26;20538;-77
2024/04/11 12:12:30;;;;;;;8.03;2.67;;;19.40;37.80;;;;;;5378868;26;20660;-77
2024/04/11 12:15:01;;;;;;;6.03;2.73;;;19.40;37.80;;;;;;5357401;26;20473;-79
2024/04/11 12:17:27;;;;;;;7.43;2.80;;;19.70;37.90;;;;;;5385747;26;20535;-78
2024/04/11 12:19:53;;;;;;;4.30;2.20;;;19.90;36.80;;;;;;5392340;26;20522;-76
2024/04/11 12:22:19;;;;;;;4.70;2.10;;;19.60;36.70;;;;;;5378392;26;21070;-77
2024/04/11 12:24:45;;;;;;;8.03;2.20;;;19.10;37.90;;;;;;5380373;26;20485;-77
2024/04/11 12:27:13;;;;;;;6.60;2.43;;;19.20;38.60;;;;;;5351488;26;20529;-78
2024/04/11 12:29:40;;;;;;;11.63;2.37;;;19.40;37.20;;;;;;5382343;26;20533;-75
2024/04/11 12:32:07;;;;;;;6.73;2.37;;;19.30;37.50;;;;;;5385224;26;20480;-75
2024/04/11 12:34:33;;;;;;;7.23;2.87;;;19.30;38.00;;;;;;5382820;26;20461;-76
2024/04/11 12:37:11;;;;;;;8.27;3.30;;;19.60;37.50;;;;;;5381393;26;20456;-77
2024/04/11 12:39:53;;;;;;;8.57;3.57;;;19.80;37.40;;;;;;5380362;26;20970;-75
2024/04/11 12:42:22;;;;;;;8.17;2.70;;;20.00;37.50;;;;;;5368580;26;20478;-76
2024/04/11 12:44:48;;;;;;;7.70;2.40;;;20.40;35.70;;;;;;5380034;26;20466;-76
2024/04/11 12:47:13;;;;;;;6.13;2.50;;;20.40;35.60;;;;;;5383500;26;20474;-78
2024/04/11 12:49:48;;;;;;;5.17;3.10;;;20.30;36.20;;;;;;5382313;26;20523;-77
2024/04/11 12:52:26;;;;;;;10.90;3.10;;;20.60;35.60;;;;;;5375373;26;20601;-77
2024/04/11 12:54:58;;;;;;;4.73;2.77;;;20.80;35.30;;;;;;5376473;26;20478;-77
2024/04/11 12:57:28;;;;;;;2.80;2.07;;;19.90;35.50;;;;;;5375585;26;20916;-77